createdAt,value
2023-03-26T00:02:48.907Z,79.98
2023-03-26T00:07:51.708Z,78.26
2023-03-26T00:12:53.970Z,78.83
2023-03-26T00:17:56.587Z,79.33
2023-03-26T00:23:01.509Z,79.69
2023-03-26T00:28:03.941Z,79.97
2023-03-26T00:33:07.809Z,79.51
2023-03-26T00:38:10.811Z,79.91
2023-03-26T00:43:22.785Z,80.09
2023-03-26T00:48:34.482Z,79.60
2023-03-26T00:53:48.009Z,79.71
2023-03-26T00:58:50.456Z,79.35
2023-03-26T01:05:34.912Z,80.01
2023-03-26T01:10:38.820Z,79.42
2023-03-26T01:15:42.474Z,79.19
2023-03-26T01:20:49.806Z,78.59
2023-03-26T01:26:04.890Z,77.92
2023-03-26T01:31:12.495Z,77.16
2023-03-26T01:36:27.374Z,76.06
2023-03-26T01:41:43.716Z,75.43
2023-03-26T01:46:47.924Z,74.91
2023-03-26T01:51:56.594Z,74.45
2023-03-26T01:57:20.795Z,73.78
2023-03-26T02:02:30.204Z,73.36
2023-03-26T02:08:02.653Z,73.01
2023-03-26T02:13:09.245Z,72.53
2023-03-26T02:18:13.441Z,72.20
2023-03-26T02:23:15.452Z,71.13
2023-03-26T02:28:21.499Z,69.14
2023-03-26T02:33:23.899Z,70.51
2023-03-26T02:38:27.126Z,70.17
2023-03-26T02:43:33.092Z,69.97
2023-03-26T02:48:36.371Z,69.84
2023-03-26T02:53:53.816Z,70.30
2023-03-26T02:59:04.612Z,70.09
2023-03-26T03:04:10.346Z,70.55
2023-03-26T03:09:13.024Z,70.62
2023-03-26T03:14:34.936Z,70.81
2023-03-26T03:19:37.851Z,71.00
2023-03-26T03:24:40.045Z,71.20
2023-03-26T03:29:42.511Z,71.26
2023-03-26T03:35:11.774Z,71.42
2023-03-26T03:40:15.932Z,71.38
2023-03-26T03:45:19.592Z,71.25
2023-03-26T03:50:27.628Z,71.05
2023-03-26T03:55:53.402Z,71.92
2023-03-26T04:01:15.040Z,71.85
2023-03-26T04:06:39.885Z,71.71
2023-03-26T04:11:52.882Z,72.77
2023-03-26T04:37:41.397Z,72.39
2023-03-26T04:42:50.934Z,72.14
2023-03-26T04:48:14.454Z,72.51
2023-03-26T04:53:26.908Z,72.26
2023-03-26T04:58:41.284Z,72.18
2023-03-26T05:03:48.357Z,72.23
2023-03-26T05:08:55.872Z,72.45
2023-03-26T05:14:28.364Z,72.02
2023-03-26T05:19:36.076Z,72.09
2023-03-26T05:24:41.773Z,72.29
2023-03-26T05:29:47.394Z,72.39
2023-03-26T05:34:56.349Z,72.90
2023-03-26T05:40:04.336Z,72.67
2023-03-26T05:45:22.521Z,72.56
2023-03-26T05:50:28.466Z,72.56
2023-03-26T05:55:38.945Z,72.01
2023-03-26T06:01:09.166Z,71.64
2023-03-26T06:06:37.287Z,72.29
2023-03-26T06:11:46.669Z,71.97
2023-03-26T06:16:51.313Z,71.92
2023-03-26T06:22:01.988Z,72.34
2023-03-26T06:27:14.929Z,71.90
2023-03-26T06:32:38.694Z,71.98
2023-03-26T06:37:56.093Z,72.09
2023-03-26T06:43:09.668Z,71.74
2023-03-26T06:48:29.426Z,71.88
2023-03-26T06:54:09.715Z,71.71
2023-03-26T06:59:44.252Z,71.52
2023-03-26T07:05:09.529Z,71.42
2023-03-26T07:10:33.187Z,71.75
2023-03-26T07:15:48.715Z,71.28
2023-03-26T07:21:18.234Z,70.50
2023-03-26T07:27:01.616Z,68.95
2023-03-26T07:32:29.178Z,67.05
2023-03-26T07:38:40.685Z,64.51
2023-03-26T07:44:21.829Z,63.94
2023-03-26T07:49:53.760Z,63.27
2023-03-26T07:55:21.860Z,62.33
2023-03-26T08:01:16.448Z,59.43
2023-03-26T08:06:40.955Z,59.39
2023-03-26T08:12:32.583Z,59.69
2023-03-26T08:17:59.717Z,60.19
2023-03-26T08:23:17.513Z,60.08
2023-03-26T08:29:03.258Z,57.56
2023-03-26T08:34:12.288Z,58.53
2023-03-26T08:39:20.627Z,58.00
2023-03-26T08:44:47.915Z,58.75
2023-03-26T08:50:31.615Z,57.72
2023-03-26T08:55:42.235Z,57.85
2023-03-26T09:01:52.313Z,56.71
2023-03-26T09:07:31.256Z,57.71
2023-03-26T09:13:06.453Z,57.41
2023-03-26T09:18:35.257Z,56.99
2023-03-26T09:24:20.933Z,53.99
2023-03-26T09:29:54.346Z,53.26
2023-03-26T09:35:41.816Z,52.96
2023-03-26T09:41:08.872Z,51.90
2023-03-26T09:46:33.806Z,49.82
2023-03-26T09:52:28.277Z,47.54
2023-03-26T09:57:53.687Z,49.87
2023-03-26T10:03:20.017Z,49.98
2023-03-26T10:09:11.845Z,50.65
2023-03-26T10:14:34.734Z,50.69
2023-03-26T10:20:30.605Z,51.77
2023-03-26T10:25:58.257Z,53.38
2023-03-26T10:31:22.889Z,53.41
2023-03-26T10:36:39.546Z,52.47
2023-03-26T10:42:24.420Z,50.19
2023-03-26T10:48:07.379Z,50.23
2023-03-26T10:53:42.359Z,50.72
2023-03-26T10:58:50.654Z,51.69
2023-03-26T11:03:59.091Z,50.98
2023-03-26T11:09:21.100Z,51.00
2023-03-26T11:14:48.783Z,49.01
2023-03-26T11:20:14.525Z,50.91
2023-03-26T11:25:56.677Z,52.17
2023-03-26T11:31:40.084Z,52.21
2023-03-26T11:36:52.683Z,50.03
2023-03-26T11:42:23.315Z,48.88
2023-03-26T11:47:38.354Z,48.10
2023-03-26T11:52:46.942Z,49.00
2023-03-26T11:58:04.508Z,46.57
2023-03-26T12:03:19.016Z,45.01
2023-03-26T12:08:34.749Z,43.26
2023-03-26T12:13:53.295Z,41.89
2023-03-26T12:19:27.297Z,38.22
2023-03-26T12:24:40.387Z,38.60
2023-03-26T12:29:50.650Z,41.72
2023-03-26T12:35:00.910Z,41.89
2023-03-26T12:40:39.880Z,35.74
2023-03-26T12:47:55.464Z,35.69
2023-03-26T12:51:52.707Z,34.31
2023-03-26T12:57:24.125Z,34.63
2023-03-26T13:03:04.753Z,33.89
2023-03-26T13:08:47.360Z,31.13
2023-03-26T13:14:10.687Z,33.49
2023-03-26T13:19:46.551Z,30.79
2023-03-26T13:25:09.313Z,30.08
2023-03-26T13:30:34.648Z,31.57
2023-03-26T13:36:23.059Z,29.71
2023-03-26T13:42:14.901Z,29.26
2023-03-26T13:47:25.187Z,29.84
2023-03-26T13:52:48.556Z,28.08
2023-03-26T13:58:15.644Z,28.03
2023-03-26T14:03:55.428Z,25.93
2023-03-26T14:09:14.263Z,25.65
2023-03-26T14:14:47.854Z,26.62
2023-03-26T14:19:52.445Z,27.38
2023-03-26T14:25:29.941Z,25.10
2023-03-26T14:30:55.027Z,28.64
2023-03-26T14:36:27.296Z,23.78
2023-03-26T14:42:11.696Z,22.62
2023-03-26T14:47:19.598Z,24.92
2023-03-26T14:52:52.600Z,21.66
2023-03-26T14:58:34.570Z,21.76
2023-03-26T15:04:03.745Z,19.56
2023-03-26T15:15:54.045Z,19.50
2023-03-26T15:21:19.538Z,19.01
2023-03-26T15:27:10.992Z,18.22
2023-03-26T15:32:56.914Z,17.87
2023-03-26T15:38:44.533Z,19.14
2023-03-26T15:44:23.956Z,20.13
2023-03-26T15:49:46.212Z,19.17
2023-03-26T15:55:13.091Z,20.87
2023-03-26T16:00:33.430Z,19.16
2023-03-26T16:06:20.721Z,18.47
2023-03-26T16:11:58.759Z,19.07
2023-03-26T16:17:29.511Z,19.35
2023-03-26T16:23:19.157Z,18.89
2023-03-26T16:28:34.491Z,19.37
2023-03-26T16:34:01.528Z,21.30
2023-03-26T16:39:45.565Z,20.71
2023-03-26T16:45:26.969Z,20.27
2023-03-26T16:51:09.648Z,20.78
2023-03-26T16:56:50.654Z,21.17
2023-03-26T17:02:20.257Z,20.89
2023-03-26T17:07:38.276Z,21.58
2023-03-26T17:12:54.229Z,19.13
2023-03-26T17:18:41.758Z,18.08
2023-03-26T17:24:22.945Z,18.12
2023-03-26T17:30:18.777Z,18.60
2023-03-26T17:35:41.759Z,22.01
2023-03-26T17:41:00.854Z,31.60
2023-03-26T17:46:21.101Z,38.91
2023-03-26T17:51:50.535Z,42.35
2023-03-26T17:56:56.040Z,42.83
2023-03-26T18:02:05.614Z,44.56
2023-03-26T18:07:20.872Z,46.66
2023-03-26T18:12:59.417Z,49.60
2023-03-26T18:19:02.018Z,49.62
2023-03-26T18:24:14.722Z,47.83
2023-03-26T18:29:40.961Z,48.61
2023-03-26T18:34:53.602Z,49.65
2023-03-26T18:40:22.066Z,51.15
2023-03-26T18:45:44.299Z,52.45
2023-03-26T18:51:16.850Z,53.56
2023-03-26T18:56:42.518Z,54.24
2023-03-26T19:01:54.302Z,52.24
2023-03-26T19:07:00.958Z,52.28
2023-03-26T19:12:32.484Z,53.72
2023-03-26T19:17:44.202Z,54.86
2023-03-26T19:22:51.143Z,54.29
2023-03-26T19:27:57.250Z,54.66
2023-03-26T19:33:16.546Z,57.16
2023-03-26T19:38:27.210Z,56.17
2023-03-26T19:43:35.405Z,56.54
2023-03-26T19:48:58.312Z,53.82
2023-03-26T19:54:23.225Z,52.37
2023-03-26T19:59:34.926Z,47.72
2023-03-26T20:04:39.358Z,41.00
2023-03-26T20:09:47.421Z,36.07
2023-03-26T20:15:02.828Z,31.71
2023-03-26T20:20:15.962Z,33.85
2023-03-26T20:25:30.265Z,33.39
2023-03-26T20:30:44.051Z,31.36
2023-03-26T20:35:48.515Z,26.72
2023-03-26T20:40:55.287Z,32.66
2023-03-26T20:45:59.673Z,32.27
2023-03-26T20:51:06.397Z,30.19
2023-03-26T20:56:21.211Z,28.74
2023-03-26T21:01:25.161Z,28.31
2023-03-26T21:06:29.667Z,30.35
2023-03-26T21:12:04.548Z,27.37
2023-03-26T21:17:21.583Z,27.73
2023-03-26T21:22:56.416Z,27.00
2023-03-26T21:28:46.752Z,27.25
2023-03-26T21:33:55.427Z,29.43
2023-03-26T21:39:07.138Z,28.84
2023-03-26T21:44:15.015Z,29.56
2023-03-26T21:49:23.043Z,29.10
2023-03-26T21:54:33.291Z,29.06
2023-03-26T21:59:49.893Z,29.12
2023-03-26T22:05:06.887Z,29.00
2023-03-26T22:10:14.308Z,30.95
2023-03-26T22:15:22.752Z,31.04
2023-03-26T22:20:25.444Z,31.64
2023-03-26T22:25:51.037Z,31.28
2023-03-26T22:30:55.582Z,30.78
2023-03-26T22:36:22.011Z,31.58
2023-03-26T22:41:31.736Z,31.86
2023-03-26T22:51:55.222Z,31.79
2023-03-26T22:57:08.449Z,32.73
2023-03-26T23:02:19.298Z,32.53
2023-03-26T23:07:30.274Z,32.90
2023-03-26T23:12:36.712Z,32.81
2023-03-26T23:17:43.443Z,32.92
2023-03-26T23:22:54.751Z,33.51
2023-03-26T23:27:59.216Z,33.05
2023-03-26T23:33:07.480Z,33.36
2023-03-26T23:38:13.511Z,34.00
2023-03-26T23:43:29.207Z,33.97
2023-03-26T23:48:42.373Z,34.36
2023-03-26T23:53:49.343Z,34.31
2023-03-26T23:58:53.179Z,34.73
